Time;durP1;ratioP1;P1;durP2;ratioP2;P2;SDS_P1;SDS_P2;PMS_P1;PMS_P2;Temp;Humidity;BMP_temperature;BMP_pressure;BME280_temperature;BME280_humidity;BME280_pressure;Samples;Min_cycle;Max_cycle;Signal;HPM_P1;HPM_P2
2022/06/15 00:00:34;;;;;;;;;;;;;;;16.79;49.11;101820.16;5066559;28;19921;-87
2022/06/15 00:02:59;;;;;;;;;;;;;;;16.65;49.00;101819.94;5065189;28;19912;-87
2022/06/15 00:05:24;;;;;;;;;;;;;;;16.60;49.19;101821.97;5061017;28;20375;-87
2022/06/15 00:07:50;;;;;;;;;;;;;;;16.65;49.28;101814.59;5067240;28;19948;-87
2022/06/15 00:10:15;;;;;;;;;;;;;;;16.63;49.64;101816.47;5070169;28;20449;-87
2022/06/15 00:12:40;;;;;;;;;;;;;;;16.55;49.26;101815.97;5065522;28;19912;-87
2022/06/15 00:15:06;;;;;;;;;;;;;;;16.53;49.02;101815.19;5071990;28;19919;-88
2022/06/15 00:17:31;;;;;;;;;;;;;;;16.56;49.32;101812.38;5066860;28;19947;-87
2022/06/15 00:19:57;;;;;;;;;;;;;;;16.62;49.67;101814.75;5065832;28;19936;-88
2022/06/15 00:22:22;;;;;;;;;;;;;;;16.66;49.88;101812.78;5060945;28;19916;-87
2022/06/15 00:24:48;;;;;;;;;;;;;;;16.63;49.67;101812.94;5072281;28;19924;-88
2022/06/15 00:27:13;;;;;;;;;;;;;;;16.59;49.31;101802.41;5069405;28;19919;-87
2022/06/15 00:29:38;;;;;;;;;;;;;;;16.54;49.40;101809.78;5069639;28;19916;-87
2022/06/15 00:32:05;;;;;;;;;;;;;;;16.39;49.68;101805.19;5067584;28;19927;-87
2022/06/15 00:34:30;;;;;;;;;;;;;;;16.36;49.68;101809.81;5070134;28;19916;-87
2022/06/15 00:36:55;;;;;;;;;;;;;;;16.35;50.04;101808.09;5055631;28;20299;-87
2022/06/15 00:39:20;;;;;;;;;;;;;;;16.29;50.17;101810.13;5049818;28;19920;-88
2022/06/15 00:41:45;;;;;;;;;;;;;;;16.15;49.51;101801.94;5065712;28;19916;-87
2022/06/15 00:44:16;;;;;;;;;;;;;;;16.13;50.69;101801.13;5070528;28;20390;-87
2022/06/15 00:46:44;;;;;;;;;;;;;;;16.03;50.58;101794.50;5056930;28;20368;-87
2022/06/15 00:49:30;;;;;;;;;;;;;;;15.96;51.97;101793.94;5067895;28;20379;-87
2022/06/15 00:52:15;;;;;;;;;;;;;;;15.81;50.47;101805.34;5057865;28;19924;-87
2022/06/15 00:54:42;;;;;;;;;;;;;;;15.82;52.55;101794.59;5064014;28;19923;-88
2022/06/15 00:57:07;;;;;;;;;;;;;;;15.82;51.10;101799.91;5075840;28;20032;-87
2022/06/15 00:59:35;;;;;;;;;;;;;;;15.85;54.01;101803.38;5070856;28;19920;-87
2022/06/15 01:02:00;;;;;;;;;;;;;;;15.87;51.99;101798.84;5062714;28;20435;-87
2022/06/15 01:04:39;;;;;;;;;;;;;;;15.82;50.90;101801.72;5072050;28;19991;-87
2022/06/15 01:07:15;;;;;;;;;;;;;;;15.81;53.34;101800.00;5064850;28;19916;-87
2022/06/15 01:09:54;;;;;;;;;;;;;;;15.84;52.87;101793.66;5072483;28;20362;-87
2022/06/15 01:12:22;;;;;;;;;;;;;;;15.83;51.45;101790.13;5068394;28;20382;-87
2022/06/15 01:14:50;;;;;;;;;;;;;;;15.73;53.11;101792.34;5066691;28;20367;-87
2022/06/15 01:17:16;;;;;;;;;;;;;;;15.55;52.51;101787.84;5066515;28;19935;-87
2022/06/15 01:19:51;;;;;;;;;;;;;;;15.35;51.83;101790.53;5064565;28;20553;-87
2022/06/15 01:22:29;;;;;;;;;;;;;;;15.23;51.91;101789.28;5080878;28;19916;-87
2022/06/15 01:24:54;;;;;;;;;;;;;;;15.16;51.55;101793.16;5067710;28;19962;-87
2022/06/15 01:27:38;;;;;;;;;;;;;;;15.15;51.44;101788.75;5059271;28;20364;-87
2022/06/15 01:30:15;;;;;;;;;;;;;;;15.04;51.87;101786.56;5058184;28;19912;-87
2022/06/15 01:32:46;;;;;;;;;;;;;;;14.96;52.12;101791.34;5062628;28;20364;-87
2022/06/15 01:35:14;;;;;;;;;;;;;;;14.92;52.06;101780.00;5067917;28;19917;-87
2022/06/15 01:37:41;;;;;;;;;;;;;;;14.89;51.82;101788.09;5065445;28;19912;-87
2022/06/15 01:40:22;;;;;;;;;;;;;;;14.95;51.59;101787.81;5062161;28;19917;-87
2022/06/15 01:42:52;;;;;;;;;;;;;;;15.04;51.69;101786.56;5068720;28;19916;-88
2022/06/15 01:45:20;;;;;;;;;;;;;;;15.06;51.73;101776.69;5064476;28;19969;-86
2022/06/15 01:47:45;;;;;;;;;;;;;;;15.05;51.54;101781.16;5068736;28;19969;-87
2022/06/15 01:50:13;;;;;;;;;;;;;;;15.07;51.93;101774.94;5065159;28;20419;-87
2022/06/15 01:52:42;;;;;;;;;;;;;;;15.09;51.84;101781.91;5064958;28;20007;-87
2022/06/15 01:55:14;;;;;;;;;;;;;;;15.09;51.86;101779.22;5063801;28;19916;-87
2022/06/15 01:57:41;;;;;;;;;;;;;;;15.07;51.64;101778.44;5064767;28;19916;-88
2022/06/15 02:00:13;;;;;;;;;;;;;;;15.07;51.91;101775.78;5058040;28;20382;-87
2022/06/15 02:02:51;;;;;;;;;;;;;;;15.07;51.85;101772.25;5075767;28;19916;-88
2022/06/15 02:05:46;;;;;;;;;;;;;;;15.04;52.15;101770.59;5059425;28;19916;-87
2022/06/15 02:08:18;;;;;;;;;;;;;;;15.03;52.33;101769.72;5047177;28;20453;-87
2022/06/15 02:11:13;;;;;;;;;;;;;;;15.00;52.21;101771.66;5060454;28;20470;-87
2022/06/15 02:13:47;;;;;;;;;;;;;;;14.95;52.33;101766.53;5054667;28;19947;-87
2022/06/15 02:16:17;;;;;;;;;;;;;;;14.92;52.91;101763.13;5064821;28;20344;-87
2022/06/15 02:18:46;;;;;;;;;;;;;;;14.86;52.78;101761.59;5061338;28;19919;-87
2022/06/15 02:21:14;;;;;;;;;;;;;;;14.73;52.71;101760.38;5065839;28;20426;-87
2022/06/15 02:23:40;;;;;;;;;;;;;;;14.70;53.16;101764.06;5061351;28;20274;-87
2022/06/15 02:26:06;;;;;;;;;;;;;;;14.69;52.42;101757.00;5061124;28;20348;-87
2022/06/15 02:28:33;;;;;;;;;;;;;;;14.72;52.79;101756.00;5065873;28;19967;-87
2022/06/15 02:30:58;;;;;;;;;;;;;;;14.71;52.97;101754.28;5072686;28;20280;-87
2022/06/15 02:33:26;;;;;;;;;;;;;;;14.69;52.98;101749.03;5066943;28;20151;-87
2022/06/15 02:35:51;;;;;;;;;;;;;;;14.63;52.96;101756.41;5059544;28;19913;-87
2022/06/15 02:38:16;;;;;;;;;;;;;;;14.62;52.68;101752.00;5075110;28;19931;-87
2022/06/15 02:40:41;;;;;;;;;;;;;;;14.61;53.35;101751.16;5063160;28;19920;-87
2022/06/15 02:43:07;;;;;;;;;;;;;;;14.59;53.22;101745.00;5063696;28;19920;-87
2022/06/15 02:45:37;;;;;;;;;;;;;;;14.56;53.05;101747.81;5063220;28;20429;-87
2022/06/15 02:48:04;;;;;;;;;;;;;;;14.53;53.43;101743.47;5055995;28;19916;-87
2022/06/15 02:50:31;;;;;;;;;;;;;;;14.53;53.46;101745.28;5073992;28;19924;-87
2022/06/15 02:53:16;;;;;;;;;;;;;;;14.51;53.16;101744.50;5068960;28;19924;-87
2022/06/15 02:55:43;;;;;;;;;;;;;;;14.49;53.71;101743.66;5061507;28;20314;-87
2022/06/15 02:58:12;;;;;;;;;;;;;;;14.45;53.50;101736.72;5073663;28;19916;-87
2022/06/15 03:00:38;;;;;;;;;;;;;;;14.44;54.12;101734.97;5065974;28;19959;-87
2022/06/15 03:03:04;;;;;;;;;;;;;;;14.43;53.93;101736.78;5067103;28;19949;-87
2022/06/15 03:05:29;;;;;;;;;;;;;;;14.39;53.80;101731.66;5065923;28;19904;-87
2022/06/15 03:07:54;;;;;;;;;;;;;;;14.35;53.76;101732.69;5069644;28;19964;-87
2022/06/15 03:10:20;;;;;;;;;;;;;;;14.34;54.17;101730.97;5063028;28;20306;-87
2022/06/15 03:12:45;;;;;;;;;;;;;;;14.33;56.46;101729.25;5055985;28;19970;-87
2022/06/15 03:15:10;;;;;;;;;;;;;;;14.33;54.98;101743.41;5059620;28;19913;-87
2022/06/15 03:17:36;;;;;;;;;;;;;;;14.28;55.41;101740.94;5066878;28;20374;-87
2022/06/15 03:20:02;;;;;;;;;;;;;;;14.30;54.08;101741.75;5074604;28;19916;-87
2022/06/15 03:22:27;;;;;;;;;;;;;;;14.29;56.68;101745.34;5062514;28;19912;-87
2022/06/15 03:24:52;;;;;;;;;;;;;;;14.28;55.82;101740.94;5062609;28;19912;-87
2022/06/15 03:27:18;;;;;;;;;;;;;;;14.24;57.18;101739.34;5066480;28;20420;-87
2022/06/15 03:29:44;;;;;;;;;;;;;;;14.22;57.72;101738.56;5073143;28;19912;-87
2022/06/15 03:32:14;;;;;;;;;;;;;;;14.23;57.52;101736.75;5062664;28;20316;-87
2022/06/15 03:34:39;;;;;;;;;;;;;;;14.23;57.24;101742.06;5076389;28;19915;-87
2022/06/15 03:37:04;;;;;;;;;;;;;;;14.25;55.71;101742.88;5064948;28;20003;-87
2022/06/15 03:39:29;;;;;;;;;;;;;;;14.27;55.97;101741.03;5064555;28;19920;-87
2022/06/15 03:41:55;;;;;;;;;;;;;;;14.24;55.20;101744.66;5061046;28;19909;-87
2022/06/15 03:44:20;;;;;;;;;;;;;;;14.20;55.38;101740.38;5065610;28;19920;-87
2022/06/15 03:46:45;;;;;;;;;;;;;;;14.21;56.24;101751.88;5065086;28;19924;-87
2022/06/15 03:49:10;;;;;;;;;;;;;;;14.23;55.93;101750.91;5070185;28;19931;-87
2022/06/15 03:51:35;;;;;;;;;;;;;;;14.23;56.31;101750.06;5065768;28;20433;-86
2022/06/15 03:54:01;;;;;;;;;;;;;;;14.24;55.48;101743.81;5059621;28;19966;-86
2022/06/15 03:56:39;;;;;;;;;;;;;;;14.26;54.97;101749.91;5063046;28;20380;-87
2022/06/15 03:59:04;;;;;;;;;;;;;;;14.26;55.70;101748.09;5065383;28;20539;-87
2022/06/15 04:01:29;;;;;;;;;;;;;;;14.26;55.00;101748.09;5064634;28;19916;-87
2022/06/15 04:03:54;;;;;;;;;;;;;;;14.26;55.84;101748.09;5059482;28;20001;-86
2022/06/15 04:06:19;;;;;;;;;;;;;;;14.29;57.19;101745.34;5067660;28;19916;-87
2022/06/15 04:08:45;;;;;;;;;;;;;;;14.33;56.39;101747.88;5067960;28;19916;-87
2022/06/15 04:11:58;;;;;;;;;;;;;;;14.37;56.21;101744.16;5060323;28;19946;-87
2022/06/15 04:13:57;;;;;;;;;;;;;;;14.38;56.11;101751.22;5064985;28;19960;-87
2022/06/15 04:16:22;;;;;;;;;;;;;;;14.38;55.45;101759.19;5066868;28;20222;-87
2022/06/15 04:18:47;;;;;;;;;;;;;;;14.36;55.27;101748.63;5068824;28;20371;-87
2022/06/15 04:21:12;;;;;;;;;;;;;;;14.37;55.68;101754.81;5061544;28;19912;-86
2022/06/15 04:23:37;;;;;;;;;;;;;;;14.35;55.51;101754.00;5056904;28;19918;-87
2022/06/15 04:26:03;;;;;;;;;;;;;;;14.39;55.80;101750.28;5063775;28;19919;-86
2022/06/15 04:28:30;;;;;;;;;;;;;;;14.42;55.80;101750.16;5062034;28;20410;-87
2022/06/15 04:30:55;;;;;;;;;;;;;;;14.45;55.93;101747.34;5059324;28;20264;-87
2022/06/15 04:33:23;;;;;;;;;;;;;;;14.50;56.03;101748.06;5060281;28;19913;-87
2022/06/15 04:35:48;;;;;;;;;;;;;;;14.55;57.26;101751.41;5070554;28;19916;-87
2022/06/15 04:38:13;;;;;;;;;;;;;;;14.61;57.77;101747.63;5070641;28;19985;-87
2022/06/15 04:40:39;;;;;;;;;;;;;;;14.65;58.57;101744.75;5065961;28;19928;-87
2022/06/15 04:43:05;;;;;;;;;;;;;;;14.71;58.46;101744.50;5066106;28;20031;-87
2022/06/15 04:45:30;;;;;;;;;;;;;;;14.78;59.14;101745.09;5063739;28;20359;-87
2022/06/15 04:47:56;;;;;;;;;;;;;;;14.85;58.64;101748.34;5069478;28;19916;-87
2022/06/15 04:50:21;;;;;;;;;;;;;;;14.89;58.17;101752.63;5068981;28;20095;-87
2022/06/15 04:52:46;;;;;;;;;;;;;;;14.94;56.63;101756.81;5065259;28;19920;-87
2022/06/15 04:55:13;;;;;;;;;;;;;;;14.97;58.15;101761.16;5062122;28;19920;-87
2022/06/15 04:57:39;;;;;;;;;;;;;;;14.97;57.77;101761.16;5072075;28;19970;-87
2022/06/15 05:00:06;;;;;;;;;;;;;;;14.99;57.35;101754.81;5066348;28;19920;-87
2022/06/15 05:02:31;;;;;;;;;;;;;;;15.02;56.86;101764.47;5058195;28;19951;-87
2022/06/15 05:04:56;;;;;;;;;;;;;;;15.07;55.59;101754.47;5067883;28;19947;-87
2022/06/15 05:07:21;;;;;;;;;;;;;;;15.12;56.94;101757.81;5073497;28;19916;-87
2022/06/15 05:09:47;;;;;;;;;;;;;;;15.16;56.65;101762.06;5068042;28;19995;-87
2022/06/15 05:12:13;;;;;;;;;;;;;;;15.17;56.95;101763.78;5058938;28;19916;-87
2022/06/15 05:14:38;;;;;;;;;;;;;;;15.15;57.87;101762.97;5062760;28;19912;-88
2022/06/15 05:17:03;;;;;;;;;;;;;;;15.18;58.00;101759.31;5063392;28;19917;-86
2022/06/15 05:19:28;;;;;;;;;;;;;;;15.24;56.78;101759.03;5065198;28;20519;-86
2022/06/15 05:21:54;;;;;;;;;;;;;;;15.27;57.48;101759.78;5066614;28;19912;-86
2022/06/15 05:24:19;;;;;;;;;;;;;;;15.30;57.40;101754.31;5063570;28;20424;-86
2022/06/15 05:26:44;;;;;;;;;;;;;;;15.38;57.32;101766.41;5066748;28;20062;-86
2022/06/15 05:29:09;;;;;;;;;;;;;;;15.39;56.66;101763.69;5067052;28;20025;-86
2022/06/15 05:31:34;;;;;;;;;;;;;;;15.42;57.61;101768.00;5063048;28;19928;-86
2022/06/15 05:34:00;;;;;;;;;;;;;;;15.47;57.49;101760.66;5064159;28;20003;-86
2022/06/15 05:36:27;;;;;;;;;;;;;;;15.52;57.77;101758.66;5066204;28;19912;-86
2022/06/15 05:38:52;;;;;;;;;;;;;;;15.57;58.03;101760.19;5063338;28;19916;-86
2022/06/15 05:41:17;;;;;;;;;;;;;;;15.61;57.72;101760.88;5061219;28;19912;-86
2022/06/15 05:43:44;;;;;;;;;;;;;;;15.66;58.21;101766.03;5057452;28;19912;-86
2022/06/15 05:46:13;;;;;;;;;;;;;;;15.71;58.11;101766.69;5066609;28;19999;-86
2022/06/15 05:48:38;;;;;;;;;;;;;;;15.76;58.70;101762.00;5065838;28;20330;-86
2022/06/15 05:51:03;;;;;;;;;;;;;;;15.85;58.86;101766.03;5067640;28;19927;-86
2022/06/15 05:53:30;;;;;;;;;;;;;;;15.94;58.35;101770.94;5064543;28;19920;-86
2022/06/15 05:55:55;;;;;;;;;;;;;;;16.00;58.83;101770.66;5062882;28;20383;-86
2022/06/15 05:58:21;;;;;;;;;;;;;;;16.10;57.77;101769.28;5058195;28;19960;-86
2022/06/15 06:00:46;;;;;;;;;;;;;;;16.17;58.20;101764.50;5062467;28;19962;-85
2022/06/15 06:03:11;;;;;;;;;;;;;;;16.25;58.69;101770.31;5067776;28;19935;-85
2022/06/15 06:05:36;;;;;;;;;;;;;;;16.35;58.50;101757.38;5063269;28;19958;-85
2022/06/15 06:08:01;;;;;;;;;;;;;;;16.42;57.74;101767.69;5081951;28;19916;-86
2022/06/15 06:10:27;;;;;;;;;;;;;;;16.48;56.89;101766.53;5071922;28;20393;-86
2022/06/15 06:12:52;;;;;;;;;;;;;;;16.58;56.92;101765.09;5061745;28;19924;-86
2022/06/15 06:15:17;;;;;;;;;;;;;;;16.86;56.80;101763.72;5061658;28;19944;-85
2022/06/15 06:17:42;;;;;;;;;;;;;;;17.22;57.48;101774.31;5073587;28;19912;-85
2022/06/15 06:20:08;;;;;;;;;;;;;;;17.52;57.16;101769.13;5071710;28;19912;-85
2022/06/15 06:22:33;;;;;;;;;;;;;;;17.84;56.19;101757.53;5066569;28;19916;-85
2022/06/15 06:24:58;;;;;;;;;;;;;;;18.08;55.94;101762.44;5067125;28;19912;-85
2022/06/15 06:27:24;;;;;;;;;;;;;;;18.16;54.79;101765.56;5063965;28;19919;-85
2022/06/15 06:29:49;;;;;;;;;;;;;;;18.21;53.84;101759.94;5062857;28;19916;-87
2022/06/15 06:32:15;;;;;;;;;;;;;;;18.32;54.18;101760.16;5065696;28;19917;-86
2022/06/15 06:34:40;;;;;;;;;;;;;;;18.51;53.93;101765.31;5058937;28;19912;-87
2022/06/15 06:37:07;;;;;;;;;;;;;;;18.58;52.39;101762.19;5065947;28;19951;-87
2022/06/15 06:39:33;;;;;;;;;;;;;;;18.79;53.89;101772.63;5070062;28;19905;-87
2022/06/15 06:42:00;;;;;;;;;;;;;;;18.93;52.73;101780.72;5068510;28;19919;-86
2022/06/15 06:44:25;;;;;;;;;;;;;;;19.21;53.48;101779.00;5068930;28;19923;-87
2022/06/15 06:46:51;;;;;;;;;;;;;;;19.28;51.97;101772.31;5064163;28;19924;-87
2022/06/15 06:49:17;;;;;;;;;;;;;;;19.23;51.17;101777.97;5069232;28;19913;-86
2022/06/15 06:51:43;;;;;;;;;;;;;;;19.48;53.62;101773.75;5065671;28;19932;-87
2022/06/15 06:54:10;;;;;;;;;;;;;;;19.64;53.39;101771.88;5059971;28;20357;-86
2022/06/15 06:56:36;;;;;;;;;;;;;;;19.84;53.04;101784.03;5059405;28;19916;-87
2022/06/15 06:59:02;;;;;;;;;;;;;;;20.00;53.27;101776.69;5058617;28;20391;-86
2022/06/15 07:01:27;;;;;;;;;;;;;;;20.16;52.14;101771.19;5067521;28;19913;-87
2022/06/15 07:03:52;;;;;;;;;;;;;;;20.18;50.85;101774.63;5064863;28;20065;-87
2022/06/15 07:06:17;;;;;;;;;;;;;;;20.14;51.18;101781.16;5062492;28;19951;-87
2022/06/15 07:08:43;;;;;;;;;;;;;;;20.12;50.36;101783.94;5071207;28;19953;-87
2022/06/15 07:11:13;;;;;;;;;;;;;;;20.33;51.30;101779.00;5066332;28;19963;-87
2022/06/15 07:13:38;;;;;;;;;;;;;;;20.45;51.34;101776.47;5064075;28;19955;-86
2022/06/15 07:16:04;;;;;;;;;;;;;;;20.56;50.50;101782.00;5061863;28;19944;-87
2022/06/15 07:18:30;;;;;;;;;;;;;;;20.66;51.63;101788.50;5063598;28;19913;-86
2022/06/15 07:20:55;;;;;;;;;;;;;;;20.83;51.10;101785.50;5071324;28;19915;-86
2022/06/15 07:23:20;;;;;;;;;;;;;;;21.18;50.60;101794.81;5065485;28;19908;-87
2022/06/15 07:25:45;;;;;;;;;;;;;;;21.40;50.03;101786.97;5061513;28;19935;-86
2022/06/15 07:28:10;;;;;;;;;;;;;;;21.77;49.48;101782.50;5063471;28;19913;-86
2022/06/15 07:30:36;;;;;;;;;;;;;;;22.39;48.71;101786.97;5064367;28;19916;-87
2022/06/15 07:33:01;;;;;;;;;;;;;;;23.24;46.93;101794.88;5065669;28;20090;-87
2022/06/15 07:35:29;;;;;;;;;;;;;;;23.99;43.80;101797.00;5079766;28;19925;-86
2022/06/15 07:37:54;;;;;;;;;;;;;;;24.63;43.80;101788.97;5061062;28;19912;-87
2022/06/15 07:40:20;;;;;;;;;;;;;;;25.22;41.82;101796.50;5078000;28;19913;-86
2022/06/15 07:42:46;;;;;;;;;;;;;;;25.86;41.52;101785.44;5061461;28;19947;-86
2022/06/15 07:45:12;;;;;;;;;;;;;;;26.28;40.97;101792.53;5065135;28;19916;-87
2022/06/15 07:50:22;;;;;;;;;;;;;;;27.02;39.54;101789.25;5074432;28;19934;-87
2022/06/15 07:52:50;;;;;;;;;;;;;;;26.93;39.08;101790.97;5065502;28;20363;-87
2022/06/15 07:55:17;;;;;;;;;;;;;;;27.35;38.76;101794.19;5070059;28;19909;-86
2022/06/15 07:57:42;;;;;;;;;;;;;;;27.45;38.73;101784.16;5063586;28;19916;-87
2022/06/15 08:00:09;;;;;;;;;;;;;;;27.51;38.62;101795.41;5067127;28;19912;-86
2022/06/15 08:02:34;;;;;;;;;;;;;;;28.05;37.27;101796.47;5068904;28;20413;-86
2022/06/15 08:04:59;;;;;;;;;;;;;;;28.60;37.17;101793.69;5064343;28;19920;-87
2022/06/15 08:07:26;;;;;;;;;;;;;;;28.95;34.42;101795.53;5065748;28;19924;-87
2022/06/15 08:09:51;;;;;;;;;;;;;;;29.29;34.27;101797.47;5072633;28;20260;-87
2022/06/15 08:12:18;;;;;;;;;;;;;;;29.53;31.80;101796.75;5067132;28;19912;-86
2022/06/15 08:14:51;;;;;;;;;;;;;;;29.79;31.45;101794.84;5063904;28;19920;-87
2022/06/15 08:17:18;;;;;;;;;;;;;;;30.08;33.18;101799.03;5056990;28;19919;-87
2022/06/15 08:19:46;;;;;;;;;;;;;;;30.28;32.23;101797.78;5071361;28;19912;-86
2022/06/15 08:22:12;;;;;;;;;;;;;;;30.61;30.78;101790.47;5070601;28;20358;-87
2022/06/15 08:24:38;;;;;;;;;;;;;;;30.66;30.93;101792.69;5070524;28;19999;-87
2022/06/15 08:27:03;;;;;;;;;;;;;;;30.72;29.17;101794.75;5063991;28;19920;-86
2022/06/15 08:29:31;;;;;;;;;;;;;;;30.93;29.31;101786.06;5070122;28;20276;-87
2022/06/15 08:31:57;;;;;;;;;;;;;;;30.99;31.90;101788.94;5067764;28;19966;-87
2022/06/15 08:34:36;;;;;;;;;;;;;;;30.87;32.10;101784.00;5075607;28;19916;-87
2022/06/15 08:37:01;;;;;;;;;;;;;;;30.91;29.96;101788.94;5073071;28;19916;-87
2022/06/15 08:39:26;;;;;;;;;;;;;;;30.70;32.13;101789.47;5086079;28;19938;-87
2022/06/15 08:42:01;;;;;;;;;;;;;;;30.78;30.58;101787.75;5068807;28;19917;-87
2022/06/15 08:44:26;;;;;;;;;;;;;;;30.51;31.81;101787.06;5065239;28;20436;-87
2022/06/15 08:47:05;;;;;;;;;;;;;;;30.20;31.84;101801.31;5065908;28;19963;-87
2022/06/15 08:49:40;;;;;;;;;;;;;;;30.30;30.80;101790.25;5081380;28;19913;-87
2022/06/15 08:52:13;;;;;;;;;;;;;;;30.58;31.75;101790.81;5068057;28;19958;-87
2022/06/15 08:54:40;;;;;;;;;;;;;;;30.80;29.92;101786.59;5066680;28;20344;-87
2022/06/15 08:57:17;;;;;;;;;;;;;;;30.80;31.30;101792.03;5063745;28;19923;-87
2022/06/15 08:59:50;;;;;;;;;;;;;;;30.79;31.69;101789.50;5065377;28;19951;-87
2022/06/15 09:02:21;;;;;;;;;;;;;;;30.88;29.55;101783.84;5066132;28;19926;-88
2022/06/15 09:05:01;;;;;;;;;;;;;;;30.64;29.22;101781.97;5071323;28;19973;-88
2022/06/15 09:07:30;;;;;;;;;;;;;;;30.48;30.01;101788.25;5062650;28;19927;-88
2022/06/15 09:10:07;;;;;;;;;;;;;;;30.32;29.10;101774.59;5066540;28;19958;-87
2022/06/15 09:12:52;;;;;;;;;;;;;;;30.07;29.71;101780.97;5061669;28;20003;-88
2022/06/15 09:15:26;;;;;;;;;;;;;;;29.99;31.94;101787.28;5069522;28;20355;-88
2022/06/15 09:17:54;;;;;;;;;;;;;;;29.39;32.77;101784.59;5081372;28;20344;-88
2022/06/15 09:20:32;;;;;;;;;;;;;;;29.03;30.98;101795.59;5075281;28;19922;-88
2022/06/15 09:23:09;;;;;;;;;;;;;;;29.39;32.10;101793.63;5062550;28;19912;-88
2022/06/15 09:25:45;;;;;;;;;;;;;;;29.82;32.80;101794.53;5060417;28;19916;-88
2022/06/15 09:28:15;;;;;;;;;;;;;;;29.97;31.62;101789.28;5078527;28;19920;-88
2022/06/15 09:30:41;;;;;;;;;;;;;;;30.19;30.03;101785.97;5076339;28;19916;-88
2022/06/15 09:33:06;;;;;;;;;;;;;;;30.34;29.36;101786.19;5068512;28;19920;-88
2022/06/15 09:35:43;;;;;;;;;;;;;;;30.44;31.96;101781.41;5066947;28;19921;-88
2022/06/15 09:38:10;;;;;;;;;;;;;;;30.49;32.37;101784.47;5074853;28;19912;-88
2022/06/15 09:40:43;;;;;;;;;;;;;;;30.61;32.02;101785.00;5070215;28;19923;-87
2022/06/15 09:43:14;;;;;;;;;;;;;;;30.65;30.85;101786.38;5064065;28;19912;-88
2022/06/15 09:46:08;;;;;;;;;;;;;;;30.78;30.89;101782.31;5063453;28;20398;-88
2022/06/15 09:48:39;;;;;;;;;;;;;;;31.03;30.96;101780.41;5075624;28;19920;-88
2022/06/15 09:51:13;;;;;;;;;;;;;;;31.14;30.90;101782.78;5068411;28;20383;-89
2022/06/15 09:53:53;;;;;;;;;;;;;;;30.94;31.11;101782.31;5064440;28;19912;-88
2022/06/15 09:56:19;;;;;;;;;;;;;;;31.05;30.38;101772.91;5053708;28;19913;-89
2022/06/15 09:59:00;;;;;;;;;;;;;;;31.41;30.70;101781.56;5063294;28;20632;-89
2022/06/15 10:01:28;;;;;;;;;;;;;;;31.32;29.10;101782.59;5054934;28;20363;-89
2022/06/15 10:03:54;;;;;;;;;;;;;;;31.48;30.67;101772.50;5065258;28;19920;-89
2022/06/15 10:06:27;;;;;;;;;;;;;;;31.37;27.75;101778.31;5065517;28;19920;-89
2022/06/15 10:08:53;;;;;;;;;;;;;;;31.41;30.21;101776.94;5063854;28;19982;-89
2022/06/15 10:11:33;;;;;;;;;;;;;;;31.60;29.93;101772.94;5065678;28;20436;-89
2022/06/15 10:14:15;;;;;;;;;;;;;;;31.79;29.96;101774.41;5068807;28;19965;-89
2022/06/15 10:16:48;;;;;;;;;;;;;;;31.95;29.61;101777.09;5070266;28;20402;-89
2022/06/15 10:19:13;;;;;;;;;;;;;;;32.16;28.61;101784.66;5064835;28;19912;-89
2022/06/15 10:21:39;;;;;;;;;;;;;;;32.26;28.99;101779.78;5066367;28;19916;-89
2022/06/15 10:26:45;;;;;;;;;;;;;;;32.50;28.31;101767.88;5134452;22;19925;-88
2022/06/15 10:29:23;;;;;;;;;;;;;;;32.59;28.25;101770.50;5031987;28;20290;-88
2022/06/15 10:31:57;;;;;;;;;;;;;;;32.85;27.57;101770.97;5015248;28;19925;-88
2022/06/15 10:34:25;;;;;;;;;;;;;;;32.63;27.77;101769.13;5016164;28;20383;-88
2022/06/15 10:36:53;;;;;;;;;;;;;;;31.87;28.38;101771.66;5023323;28;19913;-88
2022/06/15 10:39:29;;;;;;;;;;;;;;;30.96;28.77;101769.31;5022134;28;20430;-88
2022/06/15 10:42:17;;;;;;;;;;;;;;;30.56;30.01;101762.84;5020336;28;19913;-88
2022/06/15 10:44:53;;;;;;;;;;;;;;;30.78;29.52;101758.59;5000049;28;19963;-87
2022/06/15 10:47:20;;;;;;;;;;;;;;;30.58;29.58;101766.25;5024459;28;19913;-88
2022/06/15 10:49:51;;;;;;;;;;;;;;;30.68;29.90;101757.88;5021123;28;19917;-88
2022/06/15 10:52:37;;;;;;;;;;;;;;;31.12;28.90;101761.09;5027704;28;20406;-88
2022/06/15 11:03:36;;;;;;;;;;;;;;;32.42;27.54;101754.25;5023501;28;19924;-90
2022/06/15 11:06:01;;;;;;;;;;;;;;;32.46;27.36;101760.19;5028550;28;19913;-90
2022/06/15 11:08:29;;;;;;;;;;;;;;;32.69;26.66;101754.66;5020316;28;19923;-89
2022/06/15 11:11:14;;;;;;;;;;;;;;;32.71;26.41;101745.25;5026122;28;19917;-90
2022/06/15 11:13:42;;;;;;;;;;;;;;;32.85;26.82;101746.31;5012462;28;20007;-90
2022/06/15 11:19:10;;;;;;;;;;;;;;;32.94;26.72;101747.97;5023323;28;19939;-90
2022/06/15 11:21:39;;;;;;;;;;;;;;;33.07;27.10;101744.59;5017943;28;19914;-90
2022/06/15 11:24:09;;;;;;;;;;;;;;;33.30;25.31;101744.50;5024986;28;20615;-90
2022/06/15 11:26:53;;;;;;;;;;;;;;;33.17;25.61;101747.06;5024369;28;20379;-90
2022/06/15 11:29:30;;;;;;;;;;;;;;;33.06;26.44;101742.88;5018447;28;20542;-90
2022/06/15 11:32:00;;;;;;;;;;;;;;;32.96;26.31;101743.16;5025276;28;19968;-90
2022/06/15 11:34:30;;;;;;;;;;;;;;;33.19;25.12;101748.56;5025238;28;20345;-90
2022/06/15 11:37:03;;;;;;;;;;;;;;;33.34;26.44;101751.28;5030365;28;19913;-90
2022/06/15 11:39:50;;;;;;;;;;;;;;;33.56;26.43;101743.19;5024851;28;19936;-90
2022/06/15 11:42:16;;;;;;;;;;;;;;;33.72;26.64;101751.22;5013710;28;19913;-90
2022/06/15 11:44:43;;;;;;;;;;;;;;;33.78;26.08;101746.84;5035515;28;20419;-90
2022/06/15 11:47:12;;;;;;;;;;;;;;;33.73;26.12;101755.66;5029681;28;19948;-90
2022/06/15 11:49:37;;;;;;;;;;;;;;;33.61;26.38;101746.19;5029097;28;20367;-90
2022/06/15 11:52:18;;;;;;;;;;;;;;;33.63;26.02;101744.13;5031351;28;19924;-90
2022/06/15 11:55:02;;;;;;;;;;;;;;;33.73;25.94;101737.28;5029536;28;19917;-90
2022/06/15 11:57:27;;;;;;;;;;;;;;;33.88;26.15;101736.41;5022454;28;21238;-91
2022/06/15 11:59:52;;;;;;;;;;;;;;;33.97;26.11;101746.25;5030918;28;20445;-90
2022/06/15 12:02:36;;;;;;;;;;;;;;;34.10;26.03;101740.91;5031677;28;19912;-90
2022/06/15 12:05:10;;;;;;;;;;;;;;;33.91;25.39;101736.03;5025410;28;20363;-91
2022/06/15 12:07:43;;;;;;;;;;;;;;;33.03;26.28;101737.78;5028999;28;20294;-90
2022/06/15 12:10:24;;;;;;;;;;;;;;;33.30;26.44;101729.97;5025548;28;19913;-91
2022/06/15 12:13:12;;;;;;;;;;;;;;;33.59;25.69;101729.09;5023118;28;19921;-90
2022/06/15 12:15:45;;;;;;;;;;;;;;;33.72;25.48;101721.03;5029347;28;19913;-90
2022/06/15 12:18:13;;;;;;;;;;;;;;;33.51;25.32;101728.16;5024088;28;19913;-90
2022/06/15 12:20:44;;;;;;;;;;;;;;;33.70;25.77;101723.97;5030010;28;20386;-90
2022/06/15 12:23:24;;;;;;;;;;;;;;;33.98;24.98;101718.59;5025794;28;20065;-91
2022/06/15 12:26:02;;;;;;;;;;;;;;;33.96;24.99;101720.72;5027086;28;19976;-90
2022/06/15 12:28:33;;;;;;;;;;;;;;;34.12;23.93;101707.78;5026691;28;19917;-90
2022/06/15 12:31:05;;;;;;;;;;;;;;;33.82;24.57;101709.75;5021981;28;19917;-91
2022/06/15 12:33:31;;;;;;;;;;;;;;;33.92;24.89;101707.53;5025148;28;19909;-91
2022/06/15 12:36:15;;;;;;;;;;;;;;;34.20;23.83;101704.91;5027585;28;19921;-91
2022/06/15 12:38:43;;;;;;;;;;;;;;;34.25;25.00;101700.53;5033232;28;20375;-91
2022/06/15 12:42:09;;;;;;;;;;;;;;;34.32;24.21;101694.22;5025719;28;20354;-90
2022/06/15 12:43:57;;;;;;;;;;;;;;;33.94;24.48;101698.06;5030581;28;19927;-91
2022/06/15 12:46:23;;;;;;;;;;;;;;;33.67;24.87;101705.16;5025216;28;19980;-91
2022/06/15 12:48:55;;;;;;;;;;;;;;;33.59;25.70;101699.78;5019810;28;19970;-90
2022/06/15 12:51:20;;;;;;;;;;;;;;;33.64;25.07;101699.22;5029819;28;20323;-91
2022/06/15 12:54:02;;;;;;;;;;;;;;;33.91;25.21;101703.94;5026889;28;19955;-91
2022/06/15 12:56:46;;;;;;;;;;;;;;;34.23;24.80;101701.78;5030120;28;19920;-90
2022/06/15 12:59:17;;;;;;;;;;;;;;;34.42;24.61;101700.25;5021588;28;19913;-91
2022/06/15 13:01:53;;;;;;;;;;;;;;;34.51;24.20;101697.19;5029528;28;19913;-90